sensor_id;sensor_type;location;lat;lon;timestamp;P1;durP1;ratioP1;P2;durP2;ratioP2
1412;SDS011;701;52.526;13.408;2022-08-01T00:02:06;7.50;;;3.80;;
1412;SDS011;701;52.526;13.408;2022-08-01T00:04:32;7.33;;;3.90;;
1412;SDS011;701;52.526;13.408;2022-08-01T00:06:58;11.13;;;4.10;;
1412;SDS011;701;52.526;13.408;2022-08-01T00:09:23;8.47;;;3.90;;
1412;SDS011;701;52.526;13.408;2022-08-01T00:11:49;10.55;;;3.90;;
1412;SDS011;701;52.526;13.408;2022-08-01T00:14:15;7.47;;;3.80;;
1412;SDS011;701;52.526;13.408;2022-08-01T00:16:40;6.97;;;3.83;;
1412;SDS011;701;52.526;13.408;2022-08-01T00:19:06;8.30;;;3.90;;
1412;SDS011;701;52.526;13.408;2022-08-01T00:21:32;6.83;;;3.80;;
1412;SDS011;701;52.526;13.408;2022-08-01T00:23:57;8.80;;;3.93;;
1412;SDS011;701;52.526;13.408;2022-08-01T00:26:24;7.20;;;3.40;;
1412;SDS011;701;52.526;13.408;2022-08-01T00:28:49;8.37;;;3.93;;
1412;SDS011;701;52.526;13.408;2022-08-01T00:31:15;7.60;;;3.75;;
1412;SDS011;701;52.526;13.408;2022-08-01T00:33:41;6.37;;;3.83;;
1412;SDS011;701;52.526;13.408;2022-08-01T00:36:06;7.80;;;3.42;;
1412;SDS011;701;52.526;13.408;2022-08-01T00:38:32;6.50;;;3.97;;
1412;SDS011;701;52.526;13.408;2022-08-01T00:40:58;6.77;;;3.70;;
1412;SDS011;701;52.526;13.408;2022-08-01T00:43:23;10.60;;;4.17;;
1412;SDS011;701;52.526;13.408;2022-08-01T00:45:49;7.50;;;3.90;;
1412;SDS011;701;52.526;13.408;2022-08-01T00:48:15;6.50;;;3.75;;
1412;SDS011;701;52.526;13.408;2022-08-01T00:50:41;6.80;;;4.15;;
1412;SDS011;701;52.526;13.408;2022-08-01T00:53:07;7.17;;;4.27;;
1412;SDS011;701;52.526;13.408;2022-08-01T00:55:32;8.33;;;4.27;;
1412;SDS011;701;52.526;13.408;2022-08-01T00:57:58;6.50;;;3.88;;
1412;SDS011;701;52.526;13.408;2022-08-01T01:00:24;7.17;;;3.47;;
1412;SDS011;701;52.526;13.408;2022-08-01T01:02:50;7.63;;;4.20;;
1412;SDS011;701;52.526;13.408;2022-08-01T01:05:16;7.70;;;4.63;;
1412;SDS011;701;52.526;13.408;2022-08-01T01:10:36;8.73;;;3.93;;
1412;SDS011;701;52.526;13.408;2022-08-01T01:13:06;7.03;;;4.07;;
1412;SDS011;701;52.526;13.408;2022-08-01T01:15:41;7.63;;;4.07;;
1412;SDS011;701;52.526;13.408;2022-08-01T01:18:11;7.00;;;3.90;;
1412;SDS011;701;52.526;13.408;2022-08-01T01:20:42;6.57;;;3.80;;
1412;SDS011;701;52.526;13.408;2022-08-01T01:32:02;6.60;;;4.30;;
1412;SDS011;701;52.526;13.408;2022-08-01T01:34:38;9.77;;;4.63;;
1412;SDS011;701;52.526;13.408;2022-08-01T01:37:09;8.97;;;4.27;;
1412;SDS011;701;52.526;13.408;2022-08-01T01:39:39;10.02;;;4.18;;
1412;SDS011;701;52.526;13.408;2022-08-01T01:42:06;5.88;;;3.72;;
1412;SDS011;701;52.526;13.408;2022-08-01T01:44:32;7.25;;;4.10;;
1412;SDS011;701;52.526;13.408;2022-08-01T01:47:00;7.03;;;3.75;;
1412;SDS011;701;52.526;13.408;2022-08-01T01:49:27;6.63;;;3.90;;
1412;SDS011;701;52.526;13.408;2022-08-01T01:51:55;7.30;;;3.90;;
1412;SDS011;701;52.526;13.408;2022-08-01T01:54:22;9.18;;;4.20;;
1412;SDS011;701;52.526;13.408;2022-08-01T01:56:53;6.18;;;3.95;;
1412;SDS011;701;52.526;13.408;2022-08-01T01:59:24;6.97;;;3.97;;
1412;SDS011;701;52.526;13.408;2022-08-01T02:01:53;8.57;;;4.30;;
1412;SDS011;701;52.526;13.408;2022-08-01T02:04:23;8.32;;;4.18;;
1412;SDS011;701;52.526;13.408;2022-08-01T02:06:50;9.95;;;4.00;;
1412;SDS011;701;52.526;13.408;2022-08-01T02:09:18;8.55;;;3.80;;
1412;SDS011;701;52.526;13.408;2022-08-01T02:11:48;7.25;;;3.83;;
1412;SDS011;701;52.526;13.408;2022-08-01T02:14:15;7.10;;;3.80;;
1412;SDS011;701;52.526;13.408;2022-08-01T02:16:44;7.03;;;3.90;;
1412;SDS011;701;52.526;13.408;2022-08-01T02:19:13;7.85;;;4.15;;
1412;SDS011;701;52.526;13.408;2022-08-01T02:24:40;9.18;;;4.68;;
1412;SDS011;701;52.526;13.408;2022-08-01T02:27:15;8.67;;;4.50;;
1412;SDS011;701;52.526;13.408;2022-08-01T02:29:58;6.70;;;4.28;;
1412;SDS011;701;52.526;13.408;2022-08-01T02:32:40;7.32;;;4.00;;
1412;SDS011;701;52.526;13.408;2022-08-01T02:35:13;8.43;;;4.47;;
1412;SDS011;701;52.526;13.408;2022-08-01T02:37:49;6.97;;;4.50;;
1412;SDS011;701;52.526;13.408;2022-08-01T02:40:16;7.97;;;4.33;;
1412;SDS011;701;52.526;13.408;2022-08-01T02:42:43;8.05;;;4.05;;
1412;SDS011;701;52.526;13.408;2022-08-01T02:45:12;7.60;;;4.40;;
1412;SDS011;701;52.526;13.408;2022-08-01T02:47:38;7.03;;;4.00;;
1412;SDS011;701;52.526;13.408;2022-08-01T02:50:07;9.10;;;4.28;;
1412;SDS011;701;52.526;13.408;2022-08-01T02:52:36;6.63;;;4.30;;
1412;SDS011;701;52.526;13.408;2022-08-01T02:55:03;7.65;;;4.53;;
1412;SDS011;701;52.526;13.408;2022-08-01T02:57:30;8.38;;;4.60;;
1412;SDS011;701;52.526;13.408;2022-08-01T02:59:57;7.28;;;4.38;;
1412;SDS011;701;52.526;13.408;2022-08-01T03:02:24;8.48;;;4.63;;
1412;SDS011;701;52.526;13.408;2022-08-01T03:04:51;9.47;;;4.87;;
1412;SDS011;701;52.526;13.408;2022-08-01T03:07:18;6.93;;;3.85;;
1412;SDS011;701;52.526;13.408;2022-08-01T03:09:45;8.27;;;4.60;;
1412;SDS011;701;52.526;13.408;2022-08-01T03:12:16;8.55;;;4.60;;
1412;SDS011;701;52.526;13.408;2022-08-01T03:14:44;8.63;;;4.93;;
1412;SDS011;701;52.526;13.408;2022-08-01T03:17:12;8.20;;;4.40;;
1412;SDS011;701;52.526;13.408;2022-08-01T03:19:38;7.40;;;4.38;;
1412;SDS011;701;52.526;13.408;2022-08-01T03:22:09;9.18;;;4.60;;
1412;SDS011;701;52.526;13.408;2022-08-01T03:24:38;10.35;;;4.90;;
1412;SDS011;701;52.526;13.408;2022-08-01T03:27:05;7.57;;;4.45;;
1412;SDS011;701;52.526;13.408;2022-08-01T03:29:32;9.00;;;3.97;;
1412;SDS011;701;52.526;13.408;2022-08-01T03:31:59;8.18;;;4.35;;
1412;SDS011;701;52.526;13.408;2022-08-01T03:34:27;7.72;;;4.57;;
1412;SDS011;701;52.526;13.408;2022-08-01T03:36:56;7.18;;;4.35;;
1412;SDS011;701;52.526;13.408;2022-08-01T03:39:34;8.48;;;4.60;;
1412;SDS011;701;52.526;13.408;2022-08-01T03:42:10;6.60;;;4.03;;
1412;SDS011;701;52.526;13.408;2022-08-01T03:44:39;6.90;;;4.20;;
1412;SDS011;701;52.526;13.408;2022-08-01T03:47:07;6.97;;;4.45;;
1412;SDS011;701;52.526;13.408;2022-08-01T03:49:35;7.95;;;4.32;;
1412;SDS011;701;52.526;13.408;2022-08-01T03:52:07;7.35;;;4.53;;
1412;SDS011;701;52.526;13.408;2022-08-01T03:54:40;8.33;;;4.67;;
1412;SDS011;701;52.526;13.408;2022-08-01T03:57:08;8.18;;;4.85;;
1412;SDS011;701;52.526;13.408;2022-08-01T03:59:35;8.30;;;4.75;;
1412;SDS011;701;52.526;13.408;2022-08-01T04:02:02;8.85;;;4.35;;
1412;SDS011;701;52.526;13.408;2022-08-01T04:04:29;8.18;;;4.40;;
1412;SDS011;701;52.526;13.408;2022-08-01T04:06:55;7.83;;;4.27;;
1412;SDS011;701;52.526;13.408;2022-08-01T04:09:21;9.38;;;4.82;;
1412;SDS011;701;52.526;13.408;2022-08-01T04:11:47;9.32;;;5.05;;
1412;SDS011;701;52.526;13.408;2022-08-01T04:14:13;7.80;;;4.83;;
1412;SDS011;701;52.526;13.408;2022-08-01T04:16:39;11.57;;;5.15;;
1412;SDS011;701;52.526;13.408;2022-08-01T04:19:05;10.32;;;5.20;;
1412;SDS011;701;52.526;13.408;2022-08-01T04:21:34;13.32;;;5.80;;
1412;SDS011;701;52.526;13.408;2022-08-01T04:24:03;10.97;;;5.83;;
1412;SDS011;701;52.526;13.408;2022-08-01T04:26:34;10.38;;;5.63;;
1412;SDS011;701;52.526;13.408;2022-08-01T04:29:02;13.68;;;5.72;;
1412;SDS011;701;52.526;13.408;2022-08-01T04:31:30;10.38;;;5.32;;
1412;SDS011;701;52.526;13.408;2022-08-01T04:33:57;11.82;;;6.65;;
1412;SDS011;701;52.526;13.408;2022-08-01T04:36:24;13.07;;;7.03;;
1412;SDS011;701;52.526;13.408;2022-08-01T04:38:54;13.05;;;6.53;;
1412;SDS011;701;52.526;13.408;2022-08-01T04:41:25;11.70;;;6.82;;
1412;SDS011;701;52.526;13.408;2022-08-01T04:43:51;11.07;;;6.60;;
1412;SDS011;701;52.526;13.408;2022-08-01T04:46:19;9.88;;;6.15;;
1412;SDS011;701;52.526;13.408;2022-08-01T04:48:45;10.87;;;6.57;;
1412;SDS011;701;52.526;13.408;2022-08-01T04:51:15;14.95;;;6.68;;
1412;SDS011;701;52.526;13.408;2022-08-01T04:53:43;13.65;;;6.50;;
1412;SDS011;701;52.526;13.408;2022-08-01T04:56:11;11.65;;;6.32;;
1412;SDS011;701;52.526;13.408;2022-08-01T04:58:39;11.15;;;6.15;;
1412;SDS011;701;52.526;13.408;2022-08-01T05:01:06;12.13;;;6.83;;
1412;SDS011;701;52.526;13.408;2022-08-01T05:03:32;11.75;;;7.13;;
1412;SDS011;701;52.526;13.408;2022-08-01T05:05:58;12.35;;;7.20;;
1412;SDS011;701;52.526;13.408;2022-08-01T05:08:24;13.37;;;7.27;;
1412;SDS011;701;52.526;13.408;2022-08-01T05:10:50;13.07;;;7.20;;
1412;SDS011;701;52.526;13.408;2022-08-01T05:13:16;14.18;;;7.65;;
1412;SDS011;701;52.526;13.408;2022-08-01T05:15:41;15.03;;;7.80;;
1412;SDS011;701;52.526;13.408;2022-08-01T05:18:07;15.05;;;7.85;;
1412;SDS011;701;52.526;13.408;2022-08-01T05:20:33;15.17;;;8.87;;
1412;SDS011;701;52.526;13.408;2022-08-01T05:22:58;14.20;;;7.88;;
1412;SDS011;701;52.526;13.408;2022-08-01T05:25:24;12.93;;;7.35;;
1412;SDS011;701;52.526;13.408;2022-08-01T05:27:50;12.03;;;7.07;;
1412;SDS011;701;52.526;13.408;2022-08-01T05:30:15;12.63;;;7.23;;
1412;SDS011;701;52.526;13.408;2022-08-01T05:32:41;14.18;;;7.20;;
1412;SDS011;701;52.526;13.408;2022-08-01T05:35:07;12.40;;;7.60;;
1412;SDS011;701;52.526;13.408;2022-08-01T05:37:34;11.87;;;6.87;;
1412;SDS011;701;52.526;13.408;2022-08-01T05:40:00;11.32;;;6.38;;
1412;SDS011;701;52.526;13.408;2022-08-01T05:42:25;9.85;;;6.75;;
1412;SDS011;701;52.526;13.408;2022-08-01T05:44:51;10.80;;;6.50;;
1412;SDS011;701;52.526;13.408;2022-08-01T05:47:17;10.88;;;6.07;;
1412;SDS011;701;52.526;13.408;2022-08-01T05:49:43;9.35;;;5.97;;
1412;SDS011;701;52.526;13.408;2022-08-01T05:52:10;13.50;;;6.43;;
1412;SDS011;701;52.526;13.408;2022-08-01T05:54:36;11.32;;;6.05;;
1412;SDS011;701;52.526;13.408;2022-08-01T05:57:01;12.82;;;6.32;;
1412;SDS011;701;52.526;13.408;2022-08-01T05:59:28;11.60;;;6.37;;
1412;SDS011;701;52.526;13.408;2022-08-01T06:01:54;12.37;;;6.10;;
1412;SDS011;701;52.526;13.408;2022-08-01T06:04:19;10.88;;;5.72;;
1412;SDS011;701;52.526;13.408;2022-08-01T06:06:45;9.40;;;4.97;;
1412;SDS011;701;52.526;13.408;2022-08-01T06:09:11;9.50;;;5.47;;
1412;SDS011;701;52.526;13.408;2022-08-01T06:11:36;8.73;;;5.73;;
1412;SDS011;701;52.526;13.408;2022-08-01T06:14:02;11.30;;;6.32;;
1412;SDS011;701;52.526;13.408;2022-08-01T06:16:28;11.50;;;6.63;;
1412;SDS011;701;52.526;13.408;2022-08-01T06:18:53;9.73;;;5.40;;
1412;SDS011;701;52.526;13.408;2022-08-01T06:21:19;11.53;;;6.20;;
1412;SDS011;701;52.526;13.408;2022-08-01T06:23:45;9.50;;;5.50;;
1412;SDS011;701;52.526;13.408;2022-08-01T06:26:10;10.07;;;6.33;;
1412;SDS011;701;52.526;13.408;2022-08-01T06:28:36;14.80;;;6.28;;
1412;SDS011;701;52.526;13.408;2022-08-01T06:31:02;11.13;;;5.20;;
1412;SDS011;701;52.526;13.408;2022-08-01T06:33:28;8.15;;;3.95;;
1412;SDS011;701;52.526;13.408;2022-08-01T06:35:56;11.07;;;4.57;;
1412;SDS011;701;52.526;13.408;2022-08-01T06:38:22;7.70;;;3.70;;
1412;SDS011;701;52.526;13.408;2022-08-01T06:40:49;6.90;;;3.75;;
1412;SDS011;701;52.526;13.408;2022-08-01T06:43:15;8.52;;;3.60;;
1412;SDS011;701;52.526;13.408;2022-08-01T06:45:40;8.37;;;3.40;;
1412;SDS011;701;52.526;13.408;2022-08-01T06:48:06;5.50;;;3.00;;
1412;SDS011;701;52.526;13.408;2022-08-01T06:50:33;5.23;;;2.73;;
1412;SDS011;701;52.526;13.408;2022-08-01T06:53:00;8.20;;;3.05;;
1412;SDS011;701;52.526;13.408;2022-08-01T06:55:26;9.30;;;5.70;;
1412;SDS011;701;52.526;13.408;2022-08-01T06:57:52;6.83;;;3.13;;
1412;SDS011;701;52.526;13.408;2022-08-01T07:00:19;6.63;;;3.05;;
1412;SDS011;701;52.526;13.408;2022-08-01T07:02:54;6.65;;;3.25;;
1412;SDS011;701;52.526;13.408;2022-08-01T07:05:21;8.98;;;3.10;;
1412;SDS011;701;52.526;13.408;2022-08-01T07:07:48;6.00;;;2.88;;
1412;SDS011;701;52.526;13.408;2022-08-01T07:10:14;5.00;;;2.63;;
1412;SDS011;701;52.526;13.408;2022-08-01T07:12:40;7.75;;;3.15;;
1412;SDS011;701;52.526;13.408;2022-08-01T07:15:06;8.15;;;2.88;;
1412;SDS011;701;52.526;13.408;2022-08-01T07:17:37;7.43;;;2.97;;
1412;SDS011;701;52.526;13.408;2022-08-01T07:20:04;6.22;;;3.28;;
1412;SDS011;701;52.526;13.408;2022-08-01T07:22:31;6.22;;;2.70;;
1412;SDS011;701;52.526;13.408;2022-08-01T07:24:57;5.32;;;2.63;;
1412;SDS011;701;52.526;13.408;2022-08-01T07:27:23;5.50;;;3.10;;
1412;SDS011;701;52.526;13.408;2022-08-01T07:29:48;6.10;;;2.87;;
1412;SDS011;701;52.526;13.408;2022-08-01T07:32:14;6.75;;;3.25;;
1412;SDS011;701;52.526;13.408;2022-08-01T07:34:40;9.17;;;3.30;;
1412;SDS011;701;52.526;13.408;2022-08-01T07:37:05;8.02;;;3.20;;
1412;SDS011;701;52.526;13.408;2022-08-01T07:39:31;8.23;;;3.50;;
1412;SDS011;701;52.526;13.408;2022-08-01T07:41:57;6.53;;;3.25;;
1412;SDS011;701;52.526;13.408;2022-08-01T07:44:22;6.67;;;3.63;;
1412;SDS011;701;52.526;13.408;2022-08-01T07:46:48;12.05;;;3.78;;
1412;SDS011;701;52.526;13.408;2022-08-01T07:49:14;10.93;;;3.53;;
1412;SDS011;701;52.526;13.408;2022-08-01T07:51:40;6.85;;;3.00;;
1412;SDS011;701;52.526;13.408;2022-08-01T07:54:05;6.10;;;2.97;;
1412;SDS011;701;52.526;13.408;2022-08-01T07:56:32;6.05;;;3.13;;
1412;SDS011;701;52.526;13.408;2022-08-01T07:58:58;6.95;;;3.03;;
1412;SDS011;701;52.526;13.408;2022-08-01T08:01:24;8.27;;;3.00;;
1412;SDS011;701;52.526;13.408;2022-08-01T08:03:49;7.15;;;3.08;;
1412;SDS011;701;52.526;13.408;2022-08-01T08:06:15;6.83;;;3.47;;
1412;SDS011;701;52.526;13.408;2022-08-01T08:08:41;9.23;;;4.13;;
1412;SDS011;701;52.526;13.408;2022-08-01T08:11:07;7.00;;;3.63;;
1412;SDS011;701;52.526;13.408;2022-08-01T08:13:32;7.78;;;4.18;;
1412;SDS011;701;52.526;13.408;2022-08-01T08:15:58;7.83;;;3.93;;
1412;SDS011;701;52.526;13.408;2022-08-01T08:18:24;11.18;;;4.10;;
1412;SDS011;701;52.526;13.408;2022-08-01T08:20:50;6.32;;;3.40;;
1412;SDS011;701;52.526;13.408;2022-08-01T08:23:16;9.33;;;4.00;;
1412;SDS011;701;52.526;13.408;2022-08-01T08:26:00;10.10;;;3.58;;
1412;SDS011;701;52.526;13.408;2022-08-01T08:28:26;7.68;;;3.85;;
1412;SDS011;701;52.526;13.408;2022-08-01T08:30:52;8.90;;;3.33;;
1412;SDS011;701;52.526;13.408;2022-08-01T08:33:19;10.98;;;3.10;;
1412;SDS011;701;52.526;13.408;2022-08-01T08:35:45;5.47;;;3.10;;
1412;SDS011;701;52.526;13.408;2022-08-01T08:38:11;9.45;;;3.65;;
1412;SDS011;701;52.526;13.408;2022-08-01T08:40:37;7.23;;;2.87;;
1412;SDS011;701;52.526;13.408;2022-08-01T08:43:05;8.30;;;3.50;;
1412;SDS011;701;52.526;13.408;2022-08-01T08:45:31;7.03;;;3.05;;
1412;SDS011;701;52.526;13.408;2022-08-01T08:47:58;6.75;;;3.33;;
1412;SDS011;701;52.526;13.408;2022-08-01T08:50:25;9.98;;;3.55;;
1412;SDS011;701;52.526;13.408;2022-08-01T08:52:55;9.23;;;5.57;;
1412;SDS011;701;52.526;13.408;2022-08-01T08:55:21;6.88;;;3.22;;
1412;SDS011;701;52.526;13.408;2022-08-01T08:57:48;8.02;;;3.53;;
1412;SDS011;701;52.526;13.408;2022-08-01T09:00:14;6.05;;;2.65;;
1412;SDS011;701;52.526;13.408;2022-08-01T09:02:41;10.10;;;2.17;;
1412;SDS011;701;52.526;13.408;2022-08-01T09:05:08;5.63;;;1.97;;
1412;SDS011;701;52.526;13.408;2022-08-01T09:07:35;7.60;;;2.08;;
1412;SDS011;701;52.526;13.408;2022-08-01T09:10:00;6.97;;;1.90;;
1412;SDS011;701;52.526;13.408;2022-08-01T09:12:26;5.80;;;1.57;;
1412;SDS011;701;52.526;13.408;2022-08-01T09:14:52;4.93;;;1.75;;
1412;SDS011;701;52.526;13.408;2022-08-01T09:17:18;5.43;;;1.77;;
1412;SDS011;701;52.526;13.408;2022-08-01T09:19:52;4.60;;;1.80;;
1412;SDS011;701;52.526;13.408;2022-08-01T09:22:20;6.38;;;1.67;;
1412;SDS011;701;52.526;13.408;2022-08-01T09:25:04;6.05;;;1.75;;
1412;SDS011;701;52.526;13.408;2022-08-01T09:27:32;4.53;;;1.63;;
1412;SDS011;701;52.526;13.408;2022-08-01T09:30:09;4.53;;;1.80;;
1412;SDS011;701;52.526;13.408;2022-08-01T09:32:35;4.95;;;1.92;;
1412;SDS011;701;52.526;13.408;2022-08-01T09:38:12;5.05;;;1.90;;
1412;SDS011;701;52.526;13.408;2022-08-01T09:43:22;4.50;;;1.70;;
1412;SDS011;701;52.526;13.408;2022-08-01T09:45:50;4.40;;;1.70;;
1412;SDS011;701;52.526;13.408;2022-08-01T09:48:17;7.88;;;2.28;;
1412;SDS011;701;52.526;13.408;2022-08-01T09:50:44;4.40;;;1.90;;
1412;SDS011;701;52.526;13.408;2022-08-01T09:53:11;4.60;;;2.17;;
1412;SDS011;701;52.526;13.408;2022-08-01T09:55:38;5.27;;;2.00;;
1412;SDS011;701;52.526;13.408;2022-08-01T09:58:05;4.95;;;2.00;;
1412;SDS011;701;52.526;13.408;2022-08-01T10:00:31;5.70;;;2.22;;
1412;SDS011;701;52.526;13.408;2022-08-01T10:02:58;5.88;;;2.00;;
1412;SDS011;701;52.526;13.408;2022-08-01T10:05:34;6.20;;;2.05;;
1412;SDS011;701;52.526;13.408;2022-08-01T10:08:04;5.70;;;2.40;;
1412;SDS011;701;52.526;13.408;2022-08-01T10:10:30;5.25;;;2.10;;
1412;SDS011;701;52.526;13.408;2022-08-01T10:12:57;5.82;;;1.90;;
1412;SDS011;701;52.526;13.408;2022-08-01T10:15:24;4.97;;;2.20;;
1412;SDS011;701;52.526;13.408;2022-08-01T10:18:09;5.90;;;2.20;;
1412;SDS011;701;52.526;13.408;2022-08-01T10:20:35;4.60;;;1.57;;
1412;SDS011;701;52.526;13.408;2022-08-01T10:23:03;4.10;;;1.85;;
1412;SDS011;701;52.526;13.408;2022-08-01T10:25:34;4.40;;;1.80;;
1412;SDS011;701;52.526;13.408;2022-08-01T10:28:03;4.25;;;2.08;;
1412;SDS011;701;52.526;13.408;2022-08-01T10:30:34;4.60;;;2.17;;
1412;SDS011;701;52.526;13.408;2022-08-01T10:33:00;12.43;;;2.17;;
1412;SDS011;701;52.526;13.408;2022-08-01T10:35:26;5.68;;;1.90;;
1412;SDS011;701;52.526;13.408;2022-08-01T10:37:53;6.90;;;1.70;;
1412;SDS011;701;52.526;13.408;2022-08-01T10:40:23;6.38;;;1.77;;
1412;SDS011;701;52.526;13.408;2022-08-01T10:42:49;6.47;;;1.83;;
1412;SDS011;701;52.526;13.408;2022-08-01T10:45:16;5.10;;;1.80;;
1412;SDS011;701;52.526;13.408;2022-08-01T10:47:48;6.55;;;1.70;;
1412;SDS011;701;52.526;13.408;2022-08-01T10:50:25;4.57;;;1.60;;
1412;SDS011;701;52.526;13.408;2022-08-01T10:55:47;8.45;;;2.10;;
1412;SDS011;701;52.526;13.408;2022-08-01T10:58:18;6.73;;;1.50;;
1412;SDS011;701;52.526;13.408;2022-08-01T11:01:40;6.88;;;2.45;;
1412;SDS011;701;52.526;13.408;2022-08-01T11:03:44;3.90;;;1.42;;
1412;SDS011;701;52.526;13.408;2022-08-01T11:06:25;5.35;;;1.50;;
1412;SDS011;701;52.526;13.408;2022-08-01T11:08:57;4.28;;;1.83;;
1412;SDS011;701;52.526;13.408;2022-08-01T11:11:23;3.80;;;1.50;;
1412;SDS011;701;52.526;13.408;2022-08-01T11:16:32;3.78;;;1.20;;
1412;SDS011;701;52.526;13.408;2022-08-01T11:19:00;6.40;;;1.60;;
1412;SDS011;701;52.526;13.408;2022-08-01T11:21:57;3.63;;;1.38;;
1412;SDS011;701;52.526;13.408;2022-08-01T11:27:19;3.97;;;1.50;;
1412;SDS011;701;52.526;13.408;2022-08-01T11:32:48;5.10;;;1.53;;
1412;SDS011;701;52.526;13.408;2022-08-01T11:35:15;5.97;;;2.20;;
1412;SDS011;701;52.526;13.408;2022-08-01T11:37:41;6.00;;;2.30;;
1412;SDS011;701;52.526;13.408;2022-08-01T11:40:20;4.95;;;2.20;;
1412;SDS011;701;52.526;13.408;2022-08-01T11:45:51;5.25;;;1.80;;
1412;SDS011;701;52.526;13.408;2022-08-01T11:48:21;4.90;;;1.63;;
1412;SDS011;701;52.526;13.408;2022-08-01T11:50:49;6.47;;;1.75;;
1412;SDS011;701;52.526;13.408;2022-08-01T11:53:22;7.45;;;1.55;;
1412;SDS011;701;52.526;13.408;2022-08-01T11:55:52;4.97;;;1.77;;
1412;SDS011;701;52.526;13.408;2022-08-01T11:58:22;6.88;;;1.73;;
1412;SDS011;701;52.526;13.408;2022-08-01T12:00:55;5.65;;;1.73;;
1412;SDS011;701;52.526;13.408;2022-08-01T12:03:29;7.03;;;1.60;;
1412;SDS011;701;52.526;13.408;2022-08-01T12:05:57;6.90;;;1.80;;
1412;SDS011;701;52.526;13.408;2022-08-01T12:08:27;4.90;;;1.80;;
1412;SDS011;701;52.526;13.408;2022-08-01T12:10:54;4.30;;;1.55;;
1412;SDS011;701;52.526;13.408;2022-08-01T12:13:20;8.20;;;1.50;;
1412;SDS011;701;52.526;13.408;2022-08-01T12:15:47;5.30;;;1.30;;
1412;SDS011;701;52.526;13.408;2022-08-01T12:18:15;4.68;;;1.60;;
1412;SDS011;701;52.526;13.408;2022-08-01T12:20:42;4.55;;;1.30;;
1412;SDS011;701;52.526;13.408;2022-08-01T12:23:10;6.25;;;1.40;;
1412;SDS011;701;52.526;13.408;2022-08-01T12:25:40;4.50;;;1.20;;
1412;SDS011;701;52.526;13.408;2022-08-01T12:28:11;4.50;;;1.70;;
1412;SDS011;701;52.526;13.408;2022-08-01T12:30:40;6.05;;;1.48;;
1412;SDS011;701;52.526;13.408;2022-08-01T12:33:07;4.93;;;1.50;;
1412;SDS011;701;52.526;13.408;2022-08-01T12:35:35;4.78;;;1.52;;
1412;SDS011;701;52.526;13.408;2022-08-01T12:38:03;4.00;;;1.25;;
1412;SDS011;701;52.526;13.408;2022-08-01T12:40:34;4.00;;;1.60;;
1412;SDS011;701;52.526;13.408;2022-08-01T12:43:05;5.88;;;2.40;;
1412;SDS011;701;52.526;13.408;2022-08-01T12:45:39;4.28;;;1.42;;
1412;SDS011;701;52.526;13.408;2022-08-01T12:48:11;4.30;;;1.50;;
1412;SDS011;701;52.526;13.408;2022-08-01T12:50:39;3.70;;;1.60;;
1412;SDS011;701;52.526;13.408;2022-08-01T12:53:14;6.13;;;1.77;;
1412;SDS011;701;52.526;13.408;2022-08-01T12:55:45;4.40;;;1.90;;
1412;SDS011;701;52.526;13.408;2022-08-01T12:58:13;4.95;;;1.80;;
1412;SDS011;701;52.526;13.408;2022-08-01T13:00:42;5.90;;;1.60;;
1412;SDS011;701;52.526;13.408;2022-08-01T13:03:13;3.97;;;1.70;;
1412;SDS011;701;52.526;13.408;2022-08-01T13:05:45;4.63;;;1.70;;
1412;SDS011;701;52.526;13.408;2022-08-01T13:08:19;6.55;;;1.52;;
1412;SDS011;701;52.526;13.408;2022-08-01T13:10:47;4.03;;;1.70;;
1412;SDS011;701;52.526;13.408;2022-08-01T13:13:14;3.88;;;1.58;;
1412;SDS011;701;52.526;13.408;2022-08-01T13:15:41;4.57;;;1.40;;
1412;SDS011;701;52.526;13.408;2022-08-01T13:18:28;4.83;;;1.50;;
1412;SDS011;701;52.526;13.408;2022-08-01T13:24:09;4.72;;;1.90;;
1412;SDS011;701;52.526;13.408;2022-08-01T13:26:38;3.80;;;1.60;;
1412;SDS011;701;52.526;13.408;2022-08-01T13:29:12;5.82;;;1.80;;
1412;SDS011;701;52.526;13.408;2022-08-01T13:31:39;8.63;;;1.73;;
1412;SDS011;701;52.526;13.408;2022-08-01T13:34:06;6.90;;;1.60;;
1412;SDS011;701;52.526;13.408;2022-08-01T13:36:33;4.72;;;1.70;;
1412;SDS011;701;52.526;13.408;2022-08-01T13:38:59;5.78;;;1.50;;
1412;SDS011;701;52.526;13.408;2022-08-01T13:41:44;6.40;;;1.60;;
1412;SDS011;701;52.526;13.408;2022-08-01T13:44:11;3.90;;;1.50;;
1412;SDS011;701;52.526;13.408;2022-08-01T13:46:38;4.20;;;1.30;;
1412;SDS011;701;52.526;13.408;2022-08-01T13:49:05;3.72;;;1.40;;
1412;SDS011;701;52.526;13.408;2022-08-01T13:51:32;4.97;;;1.88;;
1412;SDS011;701;52.526;13.408;2022-08-01T13:53:58;8.50;;;1.92;;
1412;SDS011;701;52.526;13.408;2022-08-01T13:56:25;5.57;;;1.57;;
1412;SDS011;701;52.526;13.408;2022-08-01T13:58:52;7.47;;;1.73;;
1412;SDS011;701;52.526;13.408;2022-08-01T14:01:22;3.90;;;1.60;;
1412;SDS011;701;52.526;13.408;2022-08-01T14:03:49;5.15;;;1.50;;
1412;SDS011;701;52.526;13.408;2022-08-01T14:06:16;4.30;;;1.80;;
1412;SDS011;701;52.526;13.408;2022-08-01T14:08:42;5.50;;;1.47;;
1412;SDS011;701;52.526;13.408;2022-08-01T14:11:09;5.25;;;1.80;;
1412;SDS011;701;52.526;13.408;2022-08-01T14:13:34;4.40;;;1.77;;
1412;SDS011;701;52.526;13.408;2022-08-01T14:16:03;4.07;;;1.70;;
1412;SDS011;701;52.526;13.408;2022-08-01T14:18:30;8.00;;;2.50;;
1412;SDS011;701;52.526;13.408;2022-08-01T14:20:55;3.78;;;1.50;;
1412;SDS011;701;52.526;13.408;2022-08-01T14:23:21;4.40;;;1.98;;
1412;SDS011;701;52.526;13.408;2022-08-01T14:25:47;4.83;;;1.90;;
1412;SDS011;701;52.526;13.408;2022-08-01T14:28:13;3.90;;;1.92;;
1412;SDS011;701;52.526;13.408;2022-08-01T14:30:38;5.67;;;1.73;;
1412;SDS011;701;52.526;13.408;2022-08-01T14:33:06;4.95;;;1.60;;
1412;SDS011;701;52.526;13.408;2022-08-01T14:35:32;3.60;;;1.30;;
1412;SDS011;701;52.526;13.408;2022-08-01T14:37:57;7.00;;;2.30;;
1412;SDS011;701;52.526;13.408;2022-08-01T14:40:23;5.73;;;1.80;;
1412;SDS011;701;52.526;13.408;2022-08-01T14:42:49;4.32;;;1.27;;
1412;SDS011;701;52.526;13.408;2022-08-01T14:45:14;3.50;;;1.25;;
1412;SDS011;701;52.526;13.408;2022-08-01T14:47:41;4.13;;;1.30;;
1412;SDS011;701;52.526;13.408;2022-08-01T14:50:08;4.13;;;1.30;;
1412;SDS011;701;52.526;13.408;2022-08-01T14:52:36;4.40;;;1.27;;
1412;SDS011;701;52.526;13.408;2022-08-01T14:55:03;4.70;;;2.10;;
1412;SDS011;701;52.526;13.408;2022-08-01T14:57:30;4.10;;;1.80;;
1412;SDS011;701;52.526;13.408;2022-08-01T14:59:56;4.43;;;1.83;;
1412;SDS011;701;52.526;13.408;2022-08-01T15:02:21;6.35;;;2.03;;
1412;SDS011;701;52.526;13.408;2022-08-01T15:04:48;5.90;;;1.77;;
1412;SDS011;701;52.526;13.408;2022-08-01T15:07:14;7.78;;;2.00;;
1412;SDS011;701;52.526;13.408;2022-08-01T15:09:41;5.40;;;2.00;;
1412;SDS011;701;52.526;13.408;2022-08-01T15:12:07;4.97;;;1.60;;
1412;SDS011;701;52.526;13.408;2022-08-01T15:14:33;5.95;;;1.73;;
1412;SDS011;701;52.526;13.408;2022-08-01T15:17:18;5.25;;;1.80;;
1412;SDS011;701;52.526;13.408;2022-08-01T15:19:46;4.65;;;1.77;;
1412;SDS011;701;52.526;13.408;2022-08-01T15:22:16;4.17;;;1.40;;
1412;SDS011;701;52.526;13.408;2022-08-01T15:24:42;3.85;;;1.60;;
1412;SDS011;701;52.526;13.408;2022-08-01T15:27:08;4.40;;;1.80;;
1412;SDS011;701;52.526;13.408;2022-08-01T15:29:35;8.10;;;1.70;;
1412;SDS011;701;52.526;13.408;2022-08-01T15:32:02;4.28;;;1.55;;
1412;SDS011;701;52.526;13.408;2022-08-01T15:34:29;8.33;;;2.33;;
1412;SDS011;701;52.526;13.408;2022-08-01T15:36:55;4.75;;;1.60;;
1412;SDS011;701;52.526;13.408;2022-08-01T15:39:21;3.95;;;1.60;;
1412;SDS011;701;52.526;13.408;2022-08-01T15:41:47;5.43;;;2.00;;
1412;SDS011;701;52.526;13.408;2022-08-01T15:44:13;4.57;;;1.40;;
1412;SDS011;701;52.526;13.408;2022-08-01T15:46:39;3.92;;;1.30;;
1412;SDS011;701;52.526;13.408;2022-08-01T15:49:05;3.80;;;1.20;;
1412;SDS011;701;52.526;13.408;2022-08-01T15:51:31;4.50;;;1.20;;
1412;SDS011;701;52.526;13.408;2022-08-01T15:53:58;4.82;;;1.40;;
1412;SDS011;701;52.526;13.408;2022-08-01T15:56:28;6.60;;;1.45;;